sensor_id;sensor_type;location;lat;lon;timestamp;temperature;humidity
67196;DHT22;54122;53.538;49.366;2023-08-06T00:02:19;23.30;75.70
67196;DHT22;54122;53.538;49.366;2023-08-06T00:04:51;23.30;75.90
67196;DHT22;54122;53.538;49.366;2023-08-06T00:07:22;23.30;75.80
67196;DHT22;54122;53.538;49.366;2023-08-06T00:09:54;23.20;75.80
67196;DHT22;54122;53.538;49.366;2023-08-06T00:12:25;23.20;75.80
67196;DHT22;54122;53.538;49.366;2023-08-06T00:14:56;23.20;76.00
67196;DHT22;54122;53.538;49.366;2023-08-06T00:17:28;23.10;76.10
67196;DHT22;54122;53.538;49.366;2023-08-06T00:20:01;23.10;76.00
67196;DHT22;54122;53.538;49.366;2023-08-06T00:22:38;23.10;76.10
67196;DHT22;54122;53.538;49.366;2023-08-06T00:25:09;23.10;75.90
67196;DHT22;54122;53.538;49.366;2023-08-06T00:27:40;23.10;76.10
67196;DHT22;54122;53.538;49.366;2023-08-06T00:30:12;23.10;76.10
67196;DHT22;54122;53.538;49.366;2023-08-06T00:32:43;23.00;76.10
67196;DHT22;54122;53.538;49.366;2023-08-06T00:35:16;23.00;76.10
67196;DHT22;54122;53.538;49.366;2023-08-06T00:37:47;23.00;76.30
67196;DHT22;54122;53.538;49.366;2023-08-06T00:40:20;22.90;76.40
67196;DHT22;54122;53.538;49.366;2023-08-06T00:42:53;22.90;76.50
67196;DHT22;54122;53.538;49.366;2023-08-06T00:45:25;22.90;76.60
67196;DHT22;54122;53.538;49.366;2023-08-06T00:47:57;22.80;76.60
67196;DHT22;54122;53.538;49.366;2023-08-06T00:50:28;22.80;76.90
67196;DHT22;54122;53.538;49.366;2023-08-06T00:53:00;22.70;77.20
67196;DHT22;54122;53.538;49.366;2023-08-06T00:55:32;22.70;77.40
67196;DHT22;54122;53.538;49.366;2023-08-06T00:58:04;22.70;77.60
67196;DHT22;54122;53.538;49.366;2023-08-06T01:00:36;22.60;77.80
67196;DHT22;54122;53.538;49.366;2023-08-06T01:03:08;22.60;78.00
67196;DHT22;54122;53.538;49.366;2023-08-06T01:05:39;22.60;78.00
67196;DHT22;54122;53.538;49.366;2023-08-06T01:13:33;22.50;78.40
67196;DHT22;54122;53.538;49.366;2023-08-06T01:16:09;22.50;78.70
67196;DHT22;54122;53.538;49.366;2023-08-06T01:18:41;22.50;78.80
67196;DHT22;54122;53.538;49.366;2023-08-06T01:21:15;22.50;79.00
67196;DHT22;54122;53.538;49.366;2023-08-06T01:23:47;22.50;78.90
67196;DHT22;54122;53.538;49.366;2023-08-06T01:26:42;22.50;78.90
67196;DHT22;54122;53.538;49.366;2023-08-06T01:29:24;22.50;78.90
67196;DHT22;54122;53.538;49.366;2023-08-06T01:31:58;22.50;78.90
67196;DHT22;54122;53.538;49.366;2023-08-06T01:34:33;22.50;78.90
67196;DHT22;54122;53.538;49.366;2023-08-06T01:37:05;22.50;78.90
67196;DHT22;54122;53.538;49.366;2023-08-06T01:39:37;22.50;78.90
67196;DHT22;54122;53.538;49.366;2023-08-06T01:42:10;22.60;78.90
67196;DHT22;54122;53.538;49.366;2023-08-06T01:44:42;22.60;78.90
67196;DHT22;54122;53.538;49.366;2023-08-06T01:47:13;22.60;78.70
67196;DHT22;54122;53.538;49.366;2023-08-06T01:49:45;22.60;78.50
67196;DHT22;54122;53.538;49.366;2023-08-06T01:52:16;22.60;78.40
67196;DHT22;54122;53.538;49.366;2023-08-06T01:54:47;22.70;78.30
67196;DHT22;54122;53.538;49.366;2023-08-06T01:57:19;22.70;78.10
67196;DHT22;54122;53.538;49.366;2023-08-06T01:59:50;22.70;77.80
67196;DHT22;54122;53.538;49.366;2023-08-06T02:02:21;22.80;77.50
67196;DHT22;54122;53.538;49.366;2023-08-06T02:04:53;22.80;77.20
67196;DHT22;54122;53.538;49.366;2023-08-06T02:07:24;23.00;77.40
67196;DHT22;54122;53.538;49.366;2023-08-06T02:09:55;23.60;76.10
67196;DHT22;54122;53.538;49.366;2023-08-06T02:12:27;24.30;73.30
67196;DHT22;54122;53.538;49.366;2023-08-06T02:14:58;24.80;70.10
67196;DHT22;54122;53.538;49.366;2023-08-06T02:17:30;24.80;69.30
67196;DHT22;54122;53.538;49.366;2023-08-06T02:20:01;24.80;69.20
67196;DHT22;54122;53.538;49.366;2023-08-06T02:22:32;25.00;68.70
67196;DHT22;54122;53.538;49.366;2023-08-06T02:25:04;25.10;67.90
67196;DHT22;54122;53.538;49.366;2023-08-06T02:27:37;25.50;67.70
67196;DHT22;54122;53.538;49.366;2023-08-06T02:30:08;26.20;65.40
67196;DHT22;54122;53.538;49.366;2023-08-06T02:32:40;26.90;62.60
67196;DHT22;54122;53.538;49.366;2023-08-06T02:35:11;27.60;60.50
67196;DHT22;54122;53.538;49.366;2023-08-06T02:37:42;28.20;58.30
67196;DHT22;54122;53.538;49.366;2023-08-06T02:40:14;28.70;56.20
67196;DHT22;54122;53.538;49.366;2023-08-06T02:42:45;29.10;54.40
67196;DHT22;54122;53.538;49.366;2023-08-06T02:45:16;29.60;53.50
67196;DHT22;54122;53.538;49.366;2023-08-06T02:47:48;29.90;51.60
67196;DHT22;54122;53.538;49.366;2023-08-06T02:50:19;30.00;50.40
67196;DHT22;54122;53.538;49.366;2023-08-06T02:52:51;29.90;50.70
67196;DHT22;54122;53.538;49.366;2023-08-06T02:55:22;29.70;50.80
67196;DHT22;54122;53.538;49.366;2023-08-06T02:57:53;29.60;51.10
67196;DHT22;54122;53.538;49.366;2023-08-06T03:00:25;30.00;50.60
67196;DHT22;54122;53.538;49.366;2023-08-06T03:02:56;30.60;49.00
67196;DHT22;54122;53.538;49.366;2023-08-06T03:05:27;31.00;47.90
67196;DHT22;54122;53.538;49.366;2023-08-06T03:07:59;31.30;46.40
67196;DHT22;54122;53.538;49.366;2023-08-06T03:10:30;31.50;45.20
67196;DHT22;54122;53.538;49.366;2023-08-06T03:13:02;31.70;45.10
67196;DHT22;54122;53.538;49.366;2023-08-06T03:15:33;32.00;44.00
67196;DHT22;54122;53.538;49.366;2023-08-06T03:18:06;32.10;43.60
67196;DHT22;54122;53.538;49.366;2023-08-06T03:20:37;32.50;42.90
67196;DHT22;54122;53.538;49.366;2023-08-06T03:23:08;32.80;41.00
67196;DHT22;54122;53.538;49.366;2023-08-06T03:25:40;32.90;40.70
67196;DHT22;54122;53.538;49.366;2023-08-06T03:28:11;33.10;40.20
67196;DHT22;54122;53.538;49.366;2023-08-06T03:30:43;33.40;39.50
67196;DHT22;54122;53.538;49.366;2023-08-06T03:33:14;33.60;38.70
67196;DHT22;54122;53.538;49.366;2023-08-06T03:35:45;33.50;39.10
67196;DHT22;54122;53.538;49.366;2023-08-06T03:38:17;33.80;38.30
67196;DHT22;54122;53.538;49.366;2023-08-06T03:40:48;34.20;37.60
67196;DHT22;54122;53.538;49.366;2023-08-06T03:43:20;34.40;37.40
67196;DHT22;54122;53.538;49.366;2023-08-06T03:45:51;34.70;36.60
67196;DHT22;54122;53.538;49.366;2023-08-06T03:48:22;34.90;36.30
67196;DHT22;54122;53.538;49.366;2023-08-06T03:50:54;35.10;35.90
67196;DHT22;54122;53.538;49.366;2023-08-06T03:53:25;35.50;35.50
67196;DHT22;54122;53.538;49.366;2023-08-06T03:55:56;35.90;34.80
67196;DHT22;54122;53.538;49.366;2023-08-06T03:58:30;36.00;33.50
67196;DHT22;54122;53.538;49.366;2023-08-06T04:01:02;35.80;33.20
67196;DHT22;54122;53.538;49.366;2023-08-06T04:03:34;35.40;33.80
67196;DHT22;54122;53.538;49.366;2023-08-06T04:06:05;35.40;33.80
67196;DHT22;54122;53.538;49.366;2023-08-06T04:08:37;35.70;33.90
67196;DHT22;54122;53.538;49.366;2023-08-06T04:11:08;36.20;33.00
67196;DHT22;54122;53.538;49.366;2023-08-06T04:13:43;36.80;33.40
67196;DHT22;54122;53.538;49.366;2023-08-06T04:16:15;37.20;30.80
67196;DHT22;54122;53.538;49.366;2023-08-06T04:18:47;36.90;30.60
67196;DHT22;54122;53.538;49.366;2023-08-06T04:21:18;36.70;30.70
67196;DHT22;54122;53.538;49.366;2023-08-06T04:23:49;36.60;30.70
67196;DHT22;54122;53.538;49.366;2023-08-06T04:26:21;36.70;30.90
67196;DHT22;54122;53.538;49.366;2023-08-06T04:28:52;37.20;29.90
67196;DHT22;54122;53.538;49.366;2023-08-06T04:31:24;37.30;29.50
67196;DHT22;54122;53.538;49.366;2023-08-06T04:33:55;37.30;29.40
67196;DHT22;54122;53.538;49.366;2023-08-06T04:36:26;37.10;29.10
67196;DHT22;54122;53.538;49.366;2023-08-06T04:38:58;37.10;29.30
67196;DHT22;54122;53.538;49.366;2023-08-06T04:41:29;37.20;29.10
67196;DHT22;54122;53.538;49.366;2023-08-06T04:44:00;37.20;28.40
67196;DHT22;54122;53.538;49.366;2023-08-06T04:46:32;37.10;28.60
67196;DHT22;54122;53.538;49.366;2023-08-06T04:49:03;37.50;28.60
67196;DHT22;54122;53.538;49.366;2023-08-06T04:51:35;37.80;28.10
67196;DHT22;54122;53.538;49.366;2023-08-06T04:54:06;37.70;28.00
67196;DHT22;54122;53.538;49.366;2023-08-06T04:56:37;37.70;27.90
67196;DHT22;54122;53.538;49.366;2023-08-06T04:59:09;37.70;27.50
67196;DHT22;54122;53.538;49.366;2023-08-06T05:01:40;37.60;27.30
67196;DHT22;54122;53.538;49.366;2023-08-06T05:04:12;37.60;27.30
67196;DHT22;54122;53.538;49.366;2023-08-06T05:06:43;37.70;27.10
67196;DHT22;54122;53.538;49.366;2023-08-06T05:09:14;37.70;26.90
67196;DHT22;54122;53.538;49.366;2023-08-06T05:11:47;37.60;26.60
67196;DHT22;54122;53.538;49.366;2023-08-06T05:14:18;37.60;27.00
67196;DHT22;54122;53.538;49.366;2023-08-06T05:16:50;37.60;27.10
67196;DHT22;54122;53.538;49.366;2023-08-06T05:19:21;38.10;26.80
67196;DHT22;54122;53.538;49.366;2023-08-06T05:21:53;38.30;26.00
67196;DHT22;54122;53.538;49.366;2023-08-06T05:24:24;38.20;26.20
67196;DHT22;54122;53.538;49.366;2023-08-06T05:26:55;38.30;26.20
67196;DHT22;54122;53.538;49.366;2023-08-06T05:29:27;38.40;25.60
67196;DHT22;54122;53.538;49.366;2023-08-06T05:31:58;38.20;26.30
67196;DHT22;54122;53.538;49.366;2023-08-06T05:34:29;38.30;26.00
67196;DHT22;54122;53.538;49.366;2023-08-06T05:37:01;38.40;26.20
67196;DHT22;54122;53.538;49.366;2023-08-06T05:39:32;38.80;25.90
67196;DHT22;54122;53.538;49.366;2023-08-06T05:42:04;38.80;25.80
67196;DHT22;54122;53.538;49.366;2023-08-06T05:44:36;38.70;25.80
67196;DHT22;54122;53.538;49.366;2023-08-06T05:47:07;38.90;25.80
67196;DHT22;54122;53.538;49.366;2023-08-06T05:49:38;39.00;25.60
67196;DHT22;54122;53.538;49.366;2023-08-06T05:52:10;39.10;25.50
67196;DHT22;54122;53.538;49.366;2023-08-06T05:54:41;39.00;25.10
67196;DHT22;54122;53.538;49.366;2023-08-06T05:57:12;38.80;25.10
67196;DHT22;54122;53.538;49.366;2023-08-06T05:59:44;39.10;25.20
67196;DHT22;54122;53.538;49.366;2023-08-06T06:02:15;39.30;24.80
67196;DHT22;54122;53.538;49.366;2023-08-06T06:04:47;39.30;24.80
67196;DHT22;54122;53.538;49.366;2023-08-06T06:07:18;39.50;24.80
67196;DHT22;54122;53.538;49.366;2023-08-06T06:09:50;39.60;24.60
67196;DHT22;54122;53.538;49.366;2023-08-06T06:12:21;39.90;24.20
67196;DHT22;54122;53.538;49.366;2023-08-06T06:14:53;40.10;23.60
67196;DHT22;54122;53.538;49.366;2023-08-06T06:17:25;40.00;22.80
67196;DHT22;54122;53.538;49.366;2023-08-06T06:19:56;39.80;23.30
67196;DHT22;54122;53.538;49.366;2023-08-06T06:22:27;39.60;23.50
67196;DHT22;54122;53.538;49.366;2023-08-06T06:24:59;39.60;23.90
67196;DHT22;54122;53.538;49.366;2023-08-06T06:27:31;39.70;23.20
67196;DHT22;54122;53.538;49.366;2023-08-06T06:30:02;39.50;23.00
67196;DHT22;54122;53.538;49.366;2023-08-06T06:32:35;39.30;22.50
67196;DHT22;54122;53.538;49.366;2023-08-06T06:35:06;39.10;22.70
67196;DHT22;54122;53.538;49.366;2023-08-06T06:37:38;39.20;23.10
67196;DHT22;54122;53.538;49.366;2023-08-06T06:40:10;39.20;22.80
67196;DHT22;54122;53.538;49.366;2023-08-06T06:42:41;39.10;22.90
67196;DHT22;54122;53.538;49.366;2023-08-06T06:45:13;39.00;23.00
67196;DHT22;54122;53.538;49.366;2023-08-06T06:47:44;39.20;23.30
67196;DHT22;54122;53.538;49.366;2023-08-06T06:50:15;39.20;23.40
67196;DHT22;54122;53.538;49.366;2023-08-06T06:52:47;39.20;23.20
67196;DHT22;54122;53.538;49.366;2023-08-06T06:55:18;39.20;22.70
67196;DHT22;54122;53.538;49.366;2023-08-06T06:57:49;38.80;22.90
67196;DHT22;54122;53.538;49.366;2023-08-06T07:00:21;38.60;23.40
67196;DHT22;54122;53.538;49.366;2023-08-06T07:02:52;38.50;23.70
67196;DHT22;54122;53.538;49.366;2023-08-06T07:05:24;38.60;24.20
67196;DHT22;54122;53.538;49.366;2023-08-06T07:07:55;39.10;23.60
67196;DHT22;54122;53.538;49.366;2023-08-06T07:10:26;39.20;23.20
67196;DHT22;54122;53.538;49.366;2023-08-06T07:12:58;39.10;23.50
67196;DHT22;54122;53.538;49.366;2023-08-06T07:15:29;39.20;23.50
67196;DHT22;54122;53.538;49.366;2023-08-06T07:18:01;39.20;23.40
67196;DHT22;54122;53.538;49.366;2023-08-06T07:20:32;39.10;23.00
67196;DHT22;54122;53.538;49.366;2023-08-06T07:23:05;39.00;23.30
67196;DHT22;54122;53.538;49.366;2023-08-06T07:25:36;39.20;23.20
67196;DHT22;54122;53.538;49.366;2023-08-06T07:28:10;39.30;23.00
67196;DHT22;54122;53.538;49.366;2023-08-06T07:30:43;39.40;23.20
67196;DHT22;54122;53.538;49.366;2023-08-06T07:33:14;39.70;22.70
67196;DHT22;54122;53.538;49.366;2023-08-06T07:35:46;39.70;22.10
67196;DHT22;54122;53.538;49.366;2023-08-06T07:38:17;39.40;22.10
67196;DHT22;54122;53.538;49.366;2023-08-06T07:40:48;39.10;22.40
67196;DHT22;54122;53.538;49.366;2023-08-06T07:43:20;38.90;23.00
67196;DHT22;54122;53.538;49.366;2023-08-06T07:45:52;38.90;22.90
67196;DHT22;54122;53.538;49.366;2023-08-06T07:48:23;38.80;22.70
67196;DHT22;54122;53.538;49.366;2023-08-06T07:50:55;38.70;22.70
67196;DHT22;54122;53.538;49.366;2023-08-06T07:53:27;38.60;23.10
67196;DHT22;54122;53.538;49.366;2023-08-06T07:56:00;38.70;23.40
67196;DHT22;54122;53.538;49.366;2023-08-06T07:58:33;39.20;23.10
67196;DHT22;54122;53.538;49.366;2023-08-06T08:01:06;39.50;22.60
67196;DHT22;54122;53.538;49.366;2023-08-06T08:03:38;39.50;22.30
67196;DHT22;54122;53.538;49.366;2023-08-06T08:06:09;39.20;22.50
67196;DHT22;54122;53.538;49.366;2023-08-06T08:08:40;38.90;23.00
67196;DHT22;54122;53.538;49.366;2023-08-06T08:11:12;39.00;23.30
67196;DHT22;54122;53.538;49.366;2023-08-06T08:13:43;39.20;22.90
67196;DHT22;54122;53.538;49.366;2023-08-06T08:16:15;39.20;22.90
67196;DHT22;54122;53.538;49.366;2023-08-06T08:18:46;39.00;23.00
67196;DHT22;54122;53.538;49.366;2023-08-06T08:21:17;38.80;23.30
67196;DHT22;54122;53.538;49.366;2023-08-06T08:23:49;38.40;23.50
67196;DHT22;54122;53.538;49.366;2023-08-06T08:26:21;38.10;24.40
67196;DHT22;54122;53.538;49.366;2023-08-06T08:28:52;38.30;23.80
67196;DHT22;54122;53.538;49.366;2023-08-06T08:31:23;38.50;23.70
67196;DHT22;54122;53.538;49.366;2023-08-06T08:33:55;38.90;23.70
67196;DHT22;54122;53.538;49.366;2023-08-06T08:36:26;38.90;23.30
67196;DHT22;54122;53.538;49.366;2023-08-06T08:38:58;38.00;23.90
67196;DHT22;54122;53.538;49.366;2023-08-06T08:41:31;37.80;24.30
67196;DHT22;54122;53.538;49.366;2023-08-06T08:44:03;38.00;24.30
67196;DHT22;54122;53.538;49.366;2023-08-06T08:46:37;38.00;23.90
67196;DHT22;54122;53.538;49.366;2023-08-06T08:49:11;37.70;23.80
67196;DHT22;54122;53.538;49.366;2023-08-06T08:51:43;37.70;23.70
67196;DHT22;54122;53.538;49.366;2023-08-06T08:54:22;37.70;24.00
67196;DHT22;54122;53.538;49.366;2023-08-06T08:56:54;37.80;24.40
67196;DHT22;54122;53.538;49.366;2023-08-06T08:59:28;37.90;24.10
67196;DHT22;54122;53.538;49.366;2023-08-06T09:02:01;37.60;24.50
67196;DHT22;54122;53.538;49.366;2023-08-06T09:04:32;37.50;24.80
67196;DHT22;54122;53.538;49.366;2023-08-06T09:07:07;37.60;24.90
67196;DHT22;54122;53.538;49.366;2023-08-06T09:09:40;38.00;24.50
67196;DHT22;54122;53.538;49.366;2023-08-06T09:12:16;38.50;23.70
67196;DHT22;54122;53.538;49.366;2023-08-06T09:14:48;38.80;23.60
67196;DHT22;54122;53.538;49.366;2023-08-06T09:17:20;38.70;23.90
67196;DHT22;54122;53.538;49.366;2023-08-06T09:19:51;38.60;23.50
67196;DHT22;54122;53.538;49.366;2023-08-06T09:22:23;38.20;24.10
67196;DHT22;54122;53.538;49.366;2023-08-06T09:24:56;37.30;24.80
67196;DHT22;54122;53.538;49.366;2023-08-06T09:27:28;36.50;26.50
67196;DHT22;54122;53.538;49.366;2023-08-06T09:29:59;35.90;27.40
67196;DHT22;54122;53.538;49.366;2023-08-06T09:32:47;35.60;28.20
67196;DHT22;54122;53.538;49.366;2023-08-06T09:35:18;35.40;28.20
67196;DHT22;54122;53.538;49.366;2023-08-06T09:37:50;35.10;28.60
67196;DHT22;54122;53.538;49.366;2023-08-06T09:40:31;34.90;29.20
67196;DHT22;54122;53.538;49.366;2023-08-06T09:43:03;34.90;29.20
67196;DHT22;54122;53.538;49.366;2023-08-06T09:45:37;35.10;28.80
67196;DHT22;54122;53.538;49.366;2023-08-06T09:48:09;35.40;28.40
67196;DHT22;54122;53.538;49.366;2023-08-06T09:50:41;35.40;28.00
67196;DHT22;54122;53.538;49.366;2023-08-06T09:53:13;35.00;28.90
67196;DHT22;54122;53.538;49.366;2023-08-06T09:55:45;34.80;28.80
67196;DHT22;54122;53.538;49.366;2023-08-06T09:58:17;34.60;29.00
67196;DHT22;54122;53.538;49.366;2023-08-06T10:00:49;34.70;29.30
67196;DHT22;54122;53.538;49.366;2023-08-06T10:03:21;34.80;29.30
67196;DHT22;54122;53.538;49.366;2023-08-06T10:05:55;34.80;29.00
67196;DHT22;54122;53.538;49.366;2023-08-06T10:08:27;34.80;29.10
67196;DHT22;54122;53.538;49.366;2023-08-06T10:10:59;34.80;28.80
67196;DHT22;54122;53.538;49.366;2023-08-06T10:13:33;34.80;28.90
67196;DHT22;54122;53.538;49.366;2023-08-06T10:16:06;34.70;28.70
67196;DHT22;54122;53.538;49.366;2023-08-06T10:18:39;34.60;29.10
67196;DHT22;54122;53.538;49.366;2023-08-06T10:21:10;34.60;29.30
67196;DHT22;54122;53.538;49.366;2023-08-06T10:23:42;34.60;29.10
67196;DHT22;54122;53.538;49.366;2023-08-06T10:26:16;34.60;29.90
67196;DHT22;54122;53.538;49.366;2023-08-06T10:28:48;34.70;29.00
67196;DHT22;54122;53.538;49.366;2023-08-06T10:31:19;34.60;29.00
67196;DHT22;54122;53.538;49.366;2023-08-06T10:33:51;34.70;29.60
67196;DHT22;54122;53.538;49.366;2023-08-06T10:36:22;34.80;29.20
67196;DHT22;54122;53.538;49.366;2023-08-06T10:38:52;34.90;29.30
67196;DHT22;54122;53.538;49.366;2023-08-06T10:41:29;34.90;28.80
67196;DHT22;54122;53.538;49.366;2023-08-06T10:44:06;35.00;28.40
67196;DHT22;54122;53.538;49.366;2023-08-06T10:46:36;34.70;28.60
67196;DHT22;54122;53.538;49.366;2023-08-06T10:49:06;34.70;28.70
67196;DHT22;54122;53.538;49.366;2023-08-06T10:51:33;34.60;28.50
67196;DHT22;54122;53.538;49.366;2023-08-06T10:54:00;34.50;28.40
67196;DHT22;54122;53.538;49.366;2023-08-06T10:56:26;34.40;29.00
67196;DHT22;54122;53.538;49.366;2023-08-06T10:58:57;34.50;29.30
67196;DHT22;54122;53.538;49.366;2023-08-06T11:01:24;34.70;29.00
67196;DHT22;54122;53.538;49.366;2023-08-06T11:03:51;34.70;28.60
67196;DHT22;54122;53.538;49.366;2023-08-06T11:06:20;34.50;28.10
67196;DHT22;54122;53.538;49.366;2023-08-06T11:08:51;34.50;28.90
67196;DHT22;54122;53.538;49.366;2023-08-06T11:11:19;34.60;29.00
67196;DHT22;54122;53.538;49.366;2023-08-06T11:13:47;34.70;28.80
67196;DHT22;54122;53.538;49.366;2023-08-06T11:16:23;34.60;28.30
67196;DHT22;54122;53.538;49.366;2023-08-06T11:18:53;34.40;28.40
67196;DHT22;54122;53.538;49.366;2023-08-06T11:21:21;34.30;28.70
67196;DHT22;54122;53.538;49.366;2023-08-06T11:23:48;34.30;28.50
67196;DHT22;54122;53.538;49.366;2023-08-06T11:26:19;34.10;29.10
67196;DHT22;54122;53.538;49.366;2023-08-06T11:28:46;34.20;28.90
67196;DHT22;54122;53.538;49.366;2023-08-06T11:31:22;34.20;27.90
67196;DHT22;54122;53.538;49.366;2023-08-06T11:33:53;34.10;28.40
67196;DHT22;54122;53.538;49.366;2023-08-06T11:36:40;34.20;28.70
67196;DHT22;54122;53.538;49.366;2023-08-06T11:39:07;34.10;28.90
67196;DHT22;54122;53.538;49.366;2023-08-06T11:41:33;34.10;29.00
67196;DHT22;54122;53.538;49.366;2023-08-06T11:44:00;34.10;29.00
67196;DHT22;54122;53.538;49.366;2023-08-06T11:46:26;34.00;28.50
67196;DHT22;54122;53.538;49.366;2023-08-06T11:48:57;34.00;29.10
67196;DHT22;54122;53.538;49.366;2023-08-06T11:51:24;34.00;28.50
67196;DHT22;54122;53.538;49.366;2023-08-06T11:53:58;33.90;28.30
67196;DHT22;54122;53.538;49.366;2023-08-06T11:56:25;33.80;28.40
67196;DHT22;54122;53.538;49.366;2023-08-06T11:58:53;33.60;28.70
67196;DHT22;54122;53.538;49.366;2023-08-06T12:01:20;33.50;28.90
67196;DHT22;54122;53.538;49.366;2023-08-06T12:03:46;33.50;29.00
67196;DHT22;54122;53.538;49.366;2023-08-06T12:06:13;33.30;29.20
67196;DHT22;54122;53.538;49.366;2023-08-06T12:08:39;33.20;29.70
67196;DHT22;54122;53.538;49.366;2023-08-06T12:11:07;33.10;29.10
67196;DHT22;54122;53.538;49.366;2023-08-06T12:13:35;33.10;28.50
67196;DHT22;54122;53.538;49.366;2023-08-06T12:16:01;33.20;28.40
67196;DHT22;54122;53.538;49.366;2023-08-06T12:18:27;33.20;28.00
67196;DHT22;54122;53.538;49.366;2023-08-06T12:20:56;33.00;28.50
67196;DHT22;54122;53.538;49.366;2023-08-06T12:23:22;33.00;28.50
67196;DHT22;54122;53.538;49.366;2023-08-06T12:25:49;33.00;28.20
67196;DHT22;54122;53.538;49.366;2023-08-06T12:28:15;33.00;28.10
67196;DHT22;54122;53.538;49.366;2023-08-06T12:30:42;33.00;27.60
67196;DHT22;54122;53.538;49.366;2023-08-06T12:33:10;33.00;27.20
67196;DHT22;54122;53.538;49.366;2023-08-06T12:35:36;32.90;27.10
67196;DHT22;54122;53.538;49.366;2023-08-06T12:38:04;32.90;27.40
67196;DHT22;54122;53.538;49.366;2023-08-06T12:40:31;32.70;27.80
67196;DHT22;54122;53.538;49.366;2023-08-06T12:42:57;32.70;28.20
67196;DHT22;54122;53.538;49.366;2023-08-06T12:45:25;32.70;28.10
67196;DHT22;54122;53.538;49.366;2023-08-06T12:47:51;32.80;28.30
67196;DHT22;54122;53.538;49.366;2023-08-06T12:50:18;32.80;27.40
67196;DHT22;54122;53.538;49.366;2023-08-06T12:52:44;32.80;27.40
67196;DHT22;54122;53.538;49.366;2023-08-06T12:55:11;32.80;27.20
67196;DHT22;54122;53.538;49.366;2023-08-06T12:57:37;32.80;27.40
67196;DHT22;54122;53.538;49.366;2023-08-06T13:00:04;32.80;27.60
67196;DHT22;54122;53.538;49.366;2023-08-06T13:02:31;32.70;27.80
67196;DHT22;54122;53.538;49.366;2023-08-06T13:04:57;32.70;27.90
67196;DHT22;54122;53.538;49.366;2023-08-06T13:07:24;32.70;27.90
67196;DHT22;54122;53.538;49.366;2023-08-06T13:09:51;32.70;27.80
67196;DHT22;54122;53.538;49.366;2023-08-06T13:12:17;32.70;27.80
67196;DHT22;54122;53.538;49.366;2023-08-06T13:14:46;32.60;28.00
67196;DHT22;54122;53.538;49.366;2023-08-06T13:17:12;32.60;27.80
67196;DHT22;54122;53.538;49.366;2023-08-06T13:19:39;32.50;27.60
67196;DHT22;54122;53.538;49.366;2023-08-06T13:22:05;32.50;27.70
67196;DHT22;54122;53.538;49.366;2023-08-06T13:24:34;32.40;27.80
67196;DHT22;54122;53.538;49.366;2023-08-06T13:27:01;32.40;28.00
67196;DHT22;54122;53.538;49.366;2023-08-06T13:29:27;32.30;28.50
67196;DHT22;54122;53.538;49.366;2023-08-06T13:31:54;32.20;28.70
67196;DHT22;54122;53.538;49.366;2023-08-06T13:34:20;32.20;28.60
67196;DHT22;54122;53.538;49.366;2023-08-06T13:36:47;32.10;28.60
67196;DHT22;54122;53.538;49.366;2023-08-06T13:39:13;32.00;28.90
67196;DHT22;54122;53.538;49.366;2023-08-06T13:41:44;31.90;29.20
67196;DHT22;54122;53.538;49.366;2023-08-06T13:44:12;31.90;28.70
67196;DHT22;54122;53.538;49.366;2023-08-06T13:46:41;31.80;28.80
67196;DHT22;54122;53.538;49.366;2023-08-06T13:49:07;31.90;28.70
67196;DHT22;54122;53.538;49.366;2023-08-06T13:51:34;31.80;28.60
67196;DHT22;54122;53.538;49.366;2023-08-06T13:54:02;31.70;28.30
67196;DHT22;54122;53.538;49.366;2023-08-06T13:56:29;31.70;28.50
67196;DHT22;54122;53.538;49.366;2023-08-06T13:58:56;31.60;28.80
67196;DHT22;54122;53.538;49.366;2023-08-06T14:01:22;31.50;28.80
67196;DHT22;54122;53.538;49.366;2023-08-06T14:03:48;31.40;29.10
67196;DHT22;54122;53.538;49.366;2023-08-06T14:06:15;31.40;29.20
67196;DHT22;54122;53.538;49.366;2023-08-06T14:08:41;31.40;29.20
67196;DHT22;54122;53.538;49.366;2023-08-06T14:11:08;31.40;29.10
67196;DHT22;54122;53.538;49.366;2023-08-06T14:13:36;31.30;29.10
67196;DHT22;54122;53.538;49.366;2023-08-06T14:16:03;31.20;29.10
67196;DHT22;54122;53.538;49.366;2023-08-06T14:18:29;31.20;29.30
67196;DHT22;54122;53.538;49.366;2023-08-06T14:20:56;31.10;29.50
67196;DHT22;54122;53.538;49.366;2023-08-06T14:23:22;31.10;29.80
67196;DHT22;54122;53.538;49.366;2023-08-06T14:25:49;31.10;29.90
67196;DHT22;54122;53.538;49.366;2023-08-06T14:28:15;31.10;30.00
67196;DHT22;54122;53.538;49.366;2023-08-06T14:30:42;31.00;30.20
67196;DHT22;54122;53.538;49.366;2023-08-06T14:33:08;31.00;30.50
67196;DHT22;54122;53.538;49.366;2023-08-06T14:35:35;30.90;30.60
67196;DHT22;54122;53.538;49.366;2023-08-06T14:38:01;30.80;31.00
67196;DHT22;54122;53.538;49.366;2023-08-06T14:40:27;30.70;31.10
67196;DHT22;54122;53.538;49.366;2023-08-06T14:43:00;30.60;31.50
67196;DHT22;54122;53.538;49.366;2023-08-06T14:45:27;30.50;31.20
67196;DHT22;54122;53.538;49.366;2023-08-06T14:47:53;30.40;31.50
67196;DHT22;54122;53.538;49.366;2023-08-06T14:50:20;30.30;31.70
67196;DHT22;54122;53.538;49.366;2023-08-06T14:52:46;30.20;31.70
67196;DHT22;54122;53.538;49.366;2023-08-06T14:55:22;30.20;31.90
67196;DHT22;54122;53.538;49.366;2023-08-06T14:57:50;30.20;32.30
67196;DHT22;54122;53.538;49.366;2023-08-06T15:00:17;30.00;32.60
67196;DHT22;54122;53.538;49.366;2023-08-06T15:02:43;30.00;32.90
67196;DHT22;54122;53.538;49.366;2023-08-06T15:05:10;29.90;33.30
67196;DHT22;54122;53.538;49.366;2023-08-06T15:07:37;29.80;33.60
67196;DHT22;54122;53.538;49.366;2023-08-06T15:10:05;29.80;34.00
67196;DHT22;54122;53.538;49.366;2023-08-06T15:12:32;29.70;35.20
67196;DHT22;54122;53.538;49.366;2023-08-06T15:14:58;29.60;34.30
67196;DHT22;54122;53.538;49.366;2023-08-06T15:17:27;29.50;34.70
67196;DHT22;54122;53.538;49.366;2023-08-06T15:19:58;29.40;34.90
67196;DHT22;54122;53.538;49.366;2023-08-06T15:22:26;29.40;35.00
67196;DHT22;54122;53.538;49.366;2023-08-06T15:24:52;29.30;35.20
67196;DHT22;54122;53.538;49.366;2023-08-06T15:27:19;29.20;35.30
67196;DHT22;54122;53.538;49.366;2023-08-06T15:29:46;29.10;35.50
67196;DHT22;54122;53.538;49.366;2023-08-06T15:32:12;29.00;35.90
67196;DHT22;54122;53.538;49.366;2023-08-06T15:34:39;28.90;36.10
67196;DHT22;54122;53.538;49.366;2023-08-06T15:37:06;28.90;36.40
67196;DHT22;54122;53.538;49.366;2023-08-06T15:39:34;28.80;36.50
67196;DHT22;54122;53.538;49.366;2023-08-06T15:42:00;28.70;36.70